createdAt,value
2018-12-25T00:03:41.400Z,92.01
2018-12-25T00:08:28.816Z,88.00
2018-12-25T00:13:49.935Z,121.25
2018-12-25T00:23:54.660Z,123.15
2018-12-25T00:33:45.640Z,169.12
2018-12-25T00:38:53.984Z,179.63
2018-12-25T00:44:01.154Z,249.19
2018-12-25T00:49:14.690Z,254.53
2018-12-25T00:54:31.016Z,207.70
2018-12-25T00:59:31.282Z,181.92
2018-12-25T01:04:18.409Z,190.93
2018-12-25T01:09:26.607Z,200.95
2018-12-25T01:14:47.702Z,186.82
2018-12-25T01:19:35.010Z,149.66
2018-12-25T01:24:56.007Z,141.06
2018-12-25T01:29:44.373Z,145.78
2018-12-25T01:34:51.631Z,147.83
2018-12-25T01:40:11.723Z,136.54
2018-12-25T01:50:16.543Z,147.71
2018-12-25T01:55:17.659Z,198.01
2018-12-25T02:00:04.955Z,210.48
2018-12-25T02:05:13.021Z,175.77
2018-12-25T02:10:34.120Z,202.33
2018-12-25T02:15:35.100Z,247.43
2018-12-25T02:20:23.452Z,339.06
2018-12-25T02:25:30.557Z,397.68
2018-12-25T02:30:38.999Z,373.01
2018-12-25T02:35:59.133Z,375.35
2018-12-25T02:41:00.078Z,437.13
2018-12-25T02:45:48.185Z,450.64
2018-12-25T02:50:56.727Z,397.79
2018-12-25T02:56:16.722Z,450.18
2018-12-25T03:01:04.928Z,433.18
2018-12-25T03:06:13.028Z,422.99
2018-12-25T03:11:34.097Z,465.85
2018-12-25T03:16:22.176Z,478.07
2018-12-25T03:21:30.436Z,415.99
2018-12-25T03:26:50.565Z,438.71
2018-12-25T03:31:50.648Z,425.15
2018-12-25T03:36:51.610Z,447.69
2018-12-25T03:41:39.822Z,459.94
2018-12-25T03:46:47.921Z,428.09
2018-12-25T03:52:09.097Z,481.46
2018-12-25T03:56:57.303Z,428.93
2018-12-25T04:02:17.395Z,450.08
2018-12-25T04:07:18.380Z,537.46
2018-12-25T04:12:06.850Z,588.63
2018-12-25T04:17:27.920Z,471.93
2018-12-25T04:22:16.238Z,517.27
2018-12-25T04:27:24.190Z,483.53
2018-12-25T04:32:45.534Z,585.50
2018-12-25T04:37:46.494Z,497.13
2018-12-25T04:42:47.714Z,500.22
2018-12-25T04:47:47.680Z,549.95
2018-12-25T04:52:35.878Z,582.45
2018-12-25T04:57:56.848Z,501.76
2018-12-25T05:02:45.239Z,495.60
2018-12-25T05:07:53.306Z,559.97
2018-12-25T05:13:01.526Z,551.87
2018-12-25T05:18:22.498Z,478.96
2018-12-25T05:23:23.792Z,514.82
2018-12-25T05:28:24.767Z,492.40
2018-12-25T05:33:26.105Z,519.87
2018-12-25T05:38:27.073Z,422.45
2018-12-25T05:43:27.379Z,453.05
2018-12-25T05:48:15.459Z,453.36
2018-12-25T05:53:23.836Z,506.52
2018-12-25T05:58:43.826Z,504.09
2018-12-25T06:03:45.045Z,510.35
2018-12-25T06:08:46.053Z,521.90
2018-12-25T06:13:34.459Z,466.97
2018-12-25T06:18:44.352Z,451.88
2018-12-25T06:24:05.642Z,469.98
2018-12-25T06:28:53.858Z,448.98
2018-12-25T06:34:01.132Z,390.25
2018-12-25T06:39:10.039Z,422.61
2018-12-25T06:44:31.093Z,423.67
2018-12-25T06:49:21.282Z,415.19
2018-12-25T06:54:19.524Z,446.27
2018-12-25T06:59:26.706Z,423.27
2018-12-25T07:04:34.790Z,404.18
2018-12-25T07:09:42.977Z,414.81
2018-12-25T07:14:50.263Z,392.51
2018-12-25T07:19:58.350Z,387.38
2018-12-25T07:25:19.491Z,377.91
2018-12-25T07:30:07.771Z,453.64
2018-12-25T07:35:15.184Z,486.21
2018-12-25T07:40:23.432Z,390.31
2018-12-25T07:45:31.927Z,414.38
2018-12-25T07:50:39.021Z,528.00
2018-12-25T07:56:00.311Z,401.26
2018-12-25T08:00:48.783Z,362.73
2018-12-25T08:06:08.845Z,420.00
2018-12-25T08:10:56.908Z,406.58
2018-12-25T08:16:05.053Z,447.68
2018-12-25T08:21:29.313Z,422.47
2018-12-25T08:26:13.894Z,408.04
2018-12-25T08:31:33.882Z,471.70
2018-12-25T08:36:36.485Z,415.82
2018-12-25T08:41:35.128Z,380.14
2018-12-25T08:46:23.265Z,396.56
2018-12-25T08:56:48.070Z,413.22
2018-12-25T09:01:36.287Z,400.35
2018-12-25T09:12:00.258Z,393.21
2018-12-25T09:17:01.775Z,409.77
2018-12-25T09:22:01.773Z,424.93
2018-12-25T09:26:50.149Z,381.27
2018-12-25T09:32:10.277Z,378.65
2018-12-25T09:36:57.490Z,367.55
2018-12-25T09:42:05.763Z,399.48
2018-12-25T09:52:29.950Z,364.02
2018-12-25T10:02:34.251Z,395.93
2018-12-25T10:12:39.323Z,354.80
2018-12-25T10:27:47.169Z,304.61
2018-12-25T10:32:47.348Z,294.04
2018-12-25T10:37:47.592Z,279.04
2018-12-25T10:42:47.745Z,272.97
2018-12-25T10:47:48.006Z,263.01
2018-12-25T10:57:49.468Z,243.62
2018-12-25T11:02:50.463Z,245.79
2018-12-25T11:07:51.518Z,228.24
2018-12-25T11:12:42.564Z,222.04
2018-12-25T11:18:38.233Z,200.27
2018-12-25T11:23:05.837Z,179.22
2018-12-25T11:28:05.996Z,146.20
2018-12-25T11:33:07.240Z,146.49
2018-12-25T11:38:08.416Z,160.14
2018-12-25T11:43:09.382Z,143.93
2018-12-25T11:48:10.560Z,128.52
2018-12-25T11:52:58.926Z,124.64
2018-12-25T12:03:10.047Z,122.44
2018-12-25T12:08:17.686Z,125.95
2018-12-25T12:13:37.723Z,112.79
2018-12-25T12:18:38.828Z,103.08
2018-12-25T12:23:39.932Z,113.79
2018-12-25T12:28:40.205Z,111.64
2018-12-25T12:33:27.321Z,100.26
2018-12-25T12:38:48.695Z,97.58
2018-12-25T12:43:48.687Z,93.53
2018-12-25T12:48:49.909Z,105.03
2018-12-25T12:53:51.109Z,86.15
2018-12-25T12:58:51.234Z,85.71
2018-12-25T13:03:39.364Z,82.21
2018-12-25T13:08:47.583Z,83.69
2018-12-25T13:14:08.547Z,104.84
2018-12-25T13:19:10.261Z,78.85
2018-12-25T13:24:11.240Z,72.23
2018-12-25T13:29:12.572Z,72.17
2018-12-25T13:34:13.406Z,67.17
2018-12-25T13:39:14.655Z,58.03
2018-12-25T13:44:14.650Z,59.40
2018-12-25T13:49:15.695Z,62.09
2018-12-25T13:54:17.272Z,56.39
2018-12-25T13:59:17.365Z,59.23
2018-12-25T14:04:18.316Z,56.16
2018-12-25T14:09:19.394Z,58.83
2018-12-25T14:14:20.506Z,59.60
2018-12-25T14:19:20.774Z,54.46
2018-12-25T14:24:07.875Z,51.69
2018-12-25T14:29:16.148Z,58.49
2018-12-25T14:34:37.233Z,57.03
2018-12-25T14:39:38.701Z,60.18
2018-12-25T14:44:38.699Z,59.23
2018-12-25T14:49:39.911Z,58.80
2018-12-25T14:54:41.014Z,56.93
2018-12-25T14:59:41.202Z,58.92
2018-12-25T15:04:42.447Z,59.22
2018-12-25T15:09:42.617Z,58.99
2018-12-25T15:14:42.597Z,61.43
2018-12-25T15:19:43.751Z,57.99
2018-12-25T15:24:44.729Z,59.82
2018-12-25T15:29:45.942Z,60.09
2018-12-25T15:34:46.912Z,64.58
2018-12-25T15:39:48.256Z,56.89
2018-12-25T15:44:35.381Z,60.01
2018-12-25T15:49:56.635Z,59.73
2018-12-25T15:54:57.614Z,63.11
2018-12-25T15:59:58.724Z,61.81
2018-12-25T16:04:59.814Z,63.83
2018-12-25T16:10:00.013Z,66.42
2018-12-25T16:15:00.011Z,64.86
2018-12-25T16:20:01.280Z,70.48
2018-12-25T16:25:02.366Z,72.79
2018-12-25T16:29:49.617Z,82.11
2018-12-25T16:35:10.720Z,75.28
2018-12-25T16:40:11.003Z,77.65
2018-12-25T16:45:12.080Z,72.57
2018-12-25T16:50:12.173Z,75.08
2018-12-25T16:55:13.281Z,77.90
2018-12-25T17:00:13.439Z,87.03
2018-12-25T17:05:14.416Z,91.26
2018-12-25T17:10:15.649Z,86.66
2018-12-25T17:15:15.830Z,83.78
2018-12-25T17:25:20.568Z,83.68
2018-12-25T17:30:21.875Z,80.43
2018-12-25T17:35:21.867Z,75.13
2018-12-25T17:40:22.873Z,91.05
2018-12-25T17:45:23.903Z,81.49
2018-12-25T17:50:25.210Z,81.39
2018-12-25T17:55:26.167Z,94.96
2018-12-25T18:00:27.526Z,81.69
2018-12-25T18:05:14.857Z,86.25
2018-12-25T18:10:35.234Z,76.05
2018-12-25T18:15:22.386Z,89.00
2018-12-25T18:20:43.847Z,99.38
2018-12-25T18:25:43.979Z,100.92
2018-12-25T18:30:45.030Z,92.99
2018-12-25T18:35:45.995Z,95.65
2018-12-25T18:40:47.274Z,94.02
2018-12-25T18:45:47.402Z,99.58
2018-12-25T18:50:48.496Z,87.40
2018-12-25T18:55:48.494Z,85.12
2018-12-25T19:00:49.527Z,85.05
2018-12-25T19:05:50.512Z,86.02
2018-12-25T19:10:51.560Z,84.47
2018-12-25T19:15:52.657Z,84.14
2018-12-25T19:20:52.786Z,82.04
2018-12-25T19:25:53.901Z,84.36
2018-12-25T19:30:54.303Z,80.43
2018-12-25T19:35:54.295Z,78.08
2018-12-25T19:40:55.522Z,75.51
2018-12-25T19:45:55.646Z,69.50
2018-12-25T19:50:56.057Z,74.64
2018-12-25T19:55:43.305Z,78.09
2018-12-25T20:01:04.334Z,74.65
2018-12-25T20:06:04.342Z,77.34
2018-12-25T20:11:05.588Z,80.31
2018-12-25T20:16:06.566Z,76.90
2018-12-25T20:21:07.824Z,80.15
2018-12-25T20:26:07.818Z,77.54
2018-12-25T20:31:09.034Z,81.12
2018-12-25T20:35:56.981Z,79.11
2018-12-25T20:41:18.105Z,79.41
2018-12-25T20:46:19.281Z,71.91
2018-12-25T20:51:19.446Z,67.63
2018-12-25T20:56:20.420Z,64.22
2018-12-25T21:01:08.712Z,55.22
2018-12-25T21:06:29.680Z,54.49
2018-12-25T21:11:30.887Z,47.26
2018-12-25T21:16:30.850Z,46.35
2018-12-25T21:21:32.114Z,53.24
2018-12-25T21:26:32.106Z,61.48
2018-12-25T21:31:33.420Z,54.53
2018-12-25T21:36:34.382Z,44.67
2018-12-25T21:41:35.502Z,50.52
2018-12-25T21:46:36.962Z,58.08
2018-12-25T21:51:38.023Z,76.07
2018-12-25T21:56:39.134Z,75.07
2018-12-25T22:01:39.433Z,79.32
2018-12-25T22:06:40.535Z,82.13
2018-12-25T22:11:40.775Z,81.42
2018-12-25T22:16:40.762Z,75.84
2018-12-25T22:21:41.925Z,74.78
2018-12-25T22:26:43.034Z,74.70
2018-12-25T22:31:43.088Z,95.50
2018-12-25T22:36:44.204Z,77.71
2018-12-25T22:41:44.299Z,69.36
2018-12-25T22:46:45.675Z,69.37
2018-12-25T22:51:46.131Z,76.74
2018-12-25T22:56:47.064Z,72.81
2018-12-25T23:01:48.165Z,75.03
2018-12-25T23:06:49.262Z,69.78
2018-12-25T23:11:49.287Z,77.58
2018-12-25T23:16:50.259Z,76.08
2018-12-25T23:21:53.480Z,68.35
2018-12-25T23:26:51.439Z,71.05
2018-12-25T23:31:52.656Z,70.72
2018-12-25T23:36:39.749Z,70.61
2018-12-25T23:42:00.834Z,67.87
2018-12-25T23:46:49.059Z,73.50
2018-12-25T23:51:56.415Z,66.03
2018-12-25T23:57:04.474Z,61.95
